sensor_id;sensor_type;location;lat;lon;timestamp;P1;durP1;ratioP1;P2;durP2;ratioP2
55170;SDS011;41060;47.510;8.680;2023-05-23T00:01:59;7.05;;;3.80;;
55170;SDS011;41060;47.510;8.680;2023-05-23T00:04:26;7.07;;;3.78;;
55170;SDS011;41060;47.510;8.680;2023-05-23T00:06:52;8.05;;;3.92;;
55170;SDS011;41060;47.510;8.680;2023-05-23T00:09:19;5.55;;;3.80;;
55170;SDS011;41060;47.510;8.680;2023-05-23T00:11:46;8.48;;;4.38;;
55170;SDS011;41060;47.510;8.680;2023-05-23T00:14:12;5.82;;;3.35;;
55170;SDS011;41060;47.510;8.680;2023-05-23T00:16:40;7.45;;;3.92;;
55170;SDS011;41060;47.510;8.680;2023-05-23T00:19:10;6.53;;;3.67;;
55170;SDS011;41060;47.510;8.680;2023-05-23T00:21:40;7.18;;;3.80;;
55170;SDS011;41060;47.510;8.680;2023-05-23T00:24:07;8.55;;;4.25;;
55170;SDS011;41060;47.510;8.680;2023-05-23T00:26:35;7.70;;;3.70;;
55170;SDS011;41060;47.510;8.680;2023-05-23T00:29:03;7.78;;;4.30;;
55170;SDS011;41060;47.510;8.680;2023-05-23T00:31:29;6.25;;;4.00;;
55170;SDS011;41060;47.510;8.680;2023-05-23T00:33:56;6.13;;;3.75;;
55170;SDS011;41060;47.510;8.680;2023-05-23T00:36:24;7.20;;;3.92;;
55170;SDS011;41060;47.510;8.680;2023-05-23T00:38:51;7.13;;;4.85;;
55170;SDS011;41060;47.510;8.680;2023-05-23T00:41:18;6.75;;;3.95;;
55170;SDS011;41060;47.510;8.680;2023-05-23T00:43:45;7.38;;;3.83;;
55170;SDS011;41060;47.510;8.680;2023-05-23T00:46:12;6.45;;;4.07;;
55170;SDS011;41060;47.510;8.680;2023-05-23T00:48:39;7.22;;;3.95;;
55170;SDS011;41060;47.510;8.680;2023-05-23T00:51:06;6.93;;;3.38;;
55170;SDS011;41060;47.510;8.680;2023-05-23T00:53:37;9.90;;;4.28;;
55170;SDS011;41060;47.510;8.680;2023-05-23T00:56:04;5.68;;;3.75;;
55170;SDS011;41060;47.510;8.680;2023-05-23T00:58:31;7.07;;;3.35;;
55170;SDS011;41060;47.510;8.680;2023-05-23T01:00:57;7.25;;;4.00;;
55170;SDS011;41060;47.510;8.680;2023-05-23T01:03:24;8.13;;;4.00;;
55170;SDS011;41060;47.510;8.680;2023-05-23T01:05:53;6.75;;;3.78;;
55170;SDS011;41060;47.510;8.680;2023-05-23T01:08:22;6.80;;;4.10;;
55170;SDS011;41060;47.510;8.680;2023-05-23T01:10:50;7.80;;;4.05;;
55170;SDS011;41060;47.510;8.680;2023-05-23T01:13:20;8.48;;;3.95;;
55170;SDS011;41060;47.510;8.680;2023-05-23T01:15:53;7.53;;;4.07;;
55170;SDS011;41060;47.510;8.680;2023-05-23T01:20:54;9.05;;;4.00;;
55170;SDS011;41060;47.510;8.680;2023-05-23T01:23:31;9.25;;;4.35;;
55170;SDS011;41060;47.510;8.680;2023-05-23T01:26:31;6.25;;;4.30;;
55170;SDS011;41060;47.510;8.680;2023-05-23T01:29:08;6.38;;;3.80;;
55170;SDS011;41060;47.510;8.680;2023-05-23T01:31:42;7.90;;;4.28;;
55170;SDS011;41060;47.510;8.680;2023-05-23T01:34:11;6.45;;;4.00;;
55170;SDS011;41060;47.510;8.680;2023-05-23T01:36:39;7.38;;;4.45;;
55170;SDS011;41060;47.510;8.680;2023-05-23T01:39:07;7.22;;;4.18;;
55170;SDS011;41060;47.510;8.680;2023-05-23T01:41:34;7.30;;;4.28;;
55170;SDS011;41060;47.510;8.680;2023-05-23T01:44:01;9.57;;;4.22;;
55170;SDS011;41060;47.510;8.680;2023-05-23T01:46:30;10.27;;;3.60;;
55170;SDS011;41060;47.510;8.680;2023-05-23T01:49:00;6.72;;;3.95;;
55170;SDS011;41060;47.510;8.680;2023-05-23T01:51:28;5.53;;;3.90;;
55170;SDS011;41060;47.510;8.680;2023-05-23T01:53:55;6.65;;;3.88;;
55170;SDS011;41060;47.510;8.680;2023-05-23T01:56:23;7.88;;;4.20;;
55170;SDS011;41060;47.510;8.680;2023-05-23T01:58:51;7.07;;;4.07;;
55170;SDS011;41060;47.510;8.680;2023-05-23T02:01:17;6.75;;;4.38;;
55170;SDS011;41060;47.510;8.680;2023-05-23T02:03:46;6.00;;;4.05;;
55170;SDS011;41060;47.510;8.680;2023-05-23T02:06:12;5.70;;;3.90;;
55170;SDS011;41060;47.510;8.680;2023-05-23T02:08:39;6.75;;;3.50;;
55170;SDS011;41060;47.510;8.680;2023-05-23T02:11:06;7.28;;;4.35;;
55170;SDS011;41060;47.510;8.680;2023-05-23T02:13:34;6.03;;;3.97;;
55170;SDS011;41060;47.510;8.680;2023-05-23T02:16:01;7.40;;;4.20;;
55170;SDS011;41060;47.510;8.680;2023-05-23T02:18:28;7.32;;;4.35;;
55170;SDS011;41060;47.510;8.680;2023-05-23T02:20:56;6.97;;;4.07;;
55170;SDS011;41060;47.510;8.680;2023-05-23T02:23:23;8.73;;;4.82;;
55170;SDS011;41060;47.510;8.680;2023-05-23T02:25:50;6.25;;;3.92;;
55170;SDS011;41060;47.510;8.680;2023-05-23T02:28:16;6.75;;;4.18;;
55170;SDS011;41060;47.510;8.680;2023-05-23T02:30:43;8.00;;;5.13;;
55170;SDS011;41060;47.510;8.680;2023-05-23T02:33:10;6.88;;;4.63;;
55170;SDS011;41060;47.510;8.680;2023-05-23T02:35:37;7.40;;;3.85;;
55170;SDS011;41060;47.510;8.680;2023-05-23T02:38:04;8.77;;;4.82;;
55170;SDS011;41060;47.510;8.680;2023-05-23T02:40:32;6.43;;;4.72;;
55170;SDS011;41060;47.510;8.680;2023-05-23T02:42:58;6.90;;;4.70;;
55170;SDS011;41060;47.510;8.680;2023-05-23T02:45:24;6.28;;;3.85;;
55170;SDS011;41060;47.510;8.680;2023-05-23T02:47:52;6.93;;;4.00;;
55170;SDS011;41060;47.510;8.680;2023-05-23T02:50:18;6.28;;;4.35;;
55170;SDS011;41060;47.510;8.680;2023-05-23T02:52:45;8.88;;;4.30;;
55170;SDS011;41060;47.510;8.680;2023-05-23T02:55:13;6.45;;;3.63;;
55170;SDS011;41060;47.510;8.680;2023-05-23T02:57:40;8.32;;;4.93;;
55170;SDS011;41060;47.510;8.680;2023-05-23T03:00:07;7.88;;;4.50;;
55170;SDS011;41060;47.510;8.680;2023-05-23T03:02:36;7.18;;;4.20;;
55170;SDS011;41060;47.510;8.680;2023-05-23T03:05:03;7.43;;;4.30;;
55170;SDS011;41060;47.510;8.680;2023-05-23T03:07:30;8.43;;;4.28;;
55170;SDS011;41060;47.510;8.680;2023-05-23T03:09:58;8.27;;;4.15;;
55170;SDS011;41060;47.510;8.680;2023-05-23T03:12:27;5.40;;;3.75;;
55170;SDS011;41060;47.510;8.680;2023-05-23T03:14:53;6.88;;;4.28;;
55170;SDS011;41060;47.510;8.680;2023-05-23T03:17:20;7.00;;;3.83;;
55170;SDS011;41060;47.510;8.680;2023-05-23T03:19:47;10.43;;;4.95;;
55170;SDS011;41060;47.510;8.680;2023-05-23T03:22:13;8.50;;;4.07;;
55170;SDS011;41060;47.510;8.680;2023-05-23T03:24:40;9.50;;;4.38;;
55170;SDS011;41060;47.510;8.680;2023-05-23T03:27:09;9.60;;;4.18;;
55170;SDS011;41060;47.510;8.680;2023-05-23T03:29:40;7.63;;;4.20;;
55170;SDS011;41060;47.510;8.680;2023-05-23T03:32:07;9.50;;;4.80;;
55170;SDS011;41060;47.510;8.680;2023-05-23T03:34:33;7.88;;;3.90;;
55170;SDS011;41060;47.510;8.680;2023-05-23T03:37:09;6.15;;;4.32;;
55170;SDS011;41060;47.510;8.680;2023-05-23T03:39:36;7.72;;;4.50;;
55170;SDS011;41060;47.510;8.680;2023-05-23T03:42:03;8.10;;;4.75;;
55170;SDS011;41060;47.510;8.680;2023-05-23T03:44:29;9.55;;;4.45;;
55170;SDS011;41060;47.510;8.680;2023-05-23T03:46:58;7.60;;;4.38;;
55170;SDS011;41060;47.510;8.680;2023-05-23T03:49:24;6.72;;;3.83;;
55170;SDS011;41060;47.510;8.680;2023-05-23T03:51:53;6.57;;;3.95;;
55170;SDS011;41060;47.510;8.680;2023-05-23T03:54:21;12.95;;;4.95;;
55170;SDS011;41060;47.510;8.680;2023-05-23T03:56:47;8.90;;;4.60;;
55170;SDS011;41060;47.510;8.680;2023-05-23T03:59:14;8.07;;;4.57;;
55170;SDS011;41060;47.510;8.680;2023-05-23T04:01:41;8.18;;;4.80;;
55170;SDS011;41060;47.510;8.680;2023-05-23T04:04:09;7.05;;;4.28;;
55170;SDS011;41060;47.510;8.680;2023-05-23T04:06:35;9.75;;;4.65;;
55170;SDS011;41060;47.510;8.680;2023-05-23T04:09:04;5.28;;;3.80;;
55170;SDS011;41060;47.510;8.680;2023-05-23T04:11:31;8.95;;;4.50;;
55170;SDS011;41060;47.510;8.680;2023-05-23T04:13:57;7.72;;;4.00;;
55170;SDS011;41060;47.510;8.680;2023-05-23T04:16:26;9.10;;;5.07;;
55170;SDS011;41060;47.510;8.680;2023-05-23T04:18:57;7.82;;;4.38;;
55170;SDS011;41060;47.510;8.680;2023-05-23T04:21:24;6.40;;;3.70;;
55170;SDS011;41060;47.510;8.680;2023-05-23T04:23:52;8.88;;;4.47;;
55170;SDS011;41060;47.510;8.680;2023-05-23T04:26:21;9.23;;;4.90;;
55170;SDS011;41060;47.510;8.680;2023-05-23T04:28:47;6.47;;;3.95;;
55170;SDS011;41060;47.510;8.680;2023-05-23T04:31:14;7.43;;;4.30;;
55170;SDS011;41060;47.510;8.680;2023-05-23T04:33:41;7.32;;;4.13;;
55170;SDS011;41060;47.510;8.680;2023-05-23T04:36:10;7.32;;;4.13;;
55170;SDS011;41060;47.510;8.680;2023-05-23T04:38:39;9.32;;;4.85;;
55170;SDS011;41060;47.510;8.680;2023-05-23T04:41:08;9.10;;;4.30;;
55170;SDS011;41060;47.510;8.680;2023-05-23T04:43:38;6.85;;;4.22;;
55170;SDS011;41060;47.510;8.680;2023-05-23T04:46:06;6.63;;;4.50;;
55170;SDS011;41060;47.510;8.680;2023-05-23T04:48:34;7.90;;;4.78;;
55170;SDS011;41060;47.510;8.680;2023-05-23T04:51:01;7.22;;;4.82;;
55170;SDS011;41060;47.510;8.680;2023-05-23T04:53:31;10.85;;;4.72;;
55170;SDS011;41060;47.510;8.680;2023-05-23T04:56:00;5.38;;;4.13;;
55170;SDS011;41060;47.510;8.680;2023-05-23T04:58:27;7.00;;;4.30;;
55170;SDS011;41060;47.510;8.680;2023-05-23T05:00:53;7.32;;;4.13;;
55170;SDS011;41060;47.510;8.680;2023-05-23T05:03:20;11.82;;;4.57;;
55170;SDS011;41060;47.510;8.680;2023-05-23T05:05:49;8.75;;;4.47;;
55170;SDS011;41060;47.510;8.680;2023-05-23T05:08:19;10.82;;;5.35;;
55170;SDS011;41060;47.510;8.680;2023-05-23T05:10:45;11.23;;;4.93;;
55170;SDS011;41060;47.510;8.680;2023-05-23T05:13:14;8.63;;;4.50;;
55170;SDS011;41060;47.510;8.680;2023-05-23T05:15:40;10.68;;;5.22;;
55170;SDS011;41060;47.510;8.680;2023-05-23T05:18:09;8.23;;;4.57;;
55170;SDS011;41060;47.510;8.680;2023-05-23T05:20:36;7.53;;;3.83;;
55170;SDS011;41060;47.510;8.680;2023-05-23T05:23:03;7.55;;;4.22;;
55170;SDS011;41060;47.510;8.680;2023-05-23T05:25:29;9.82;;;5.00;;
55170;SDS011;41060;47.510;8.680;2023-05-23T05:27:59;9.30;;;5.43;;
55170;SDS011;41060;47.510;8.680;2023-05-23T05:30:28;12.65;;;3.83;;
55170;SDS011;41060;47.510;8.680;2023-05-23T05:32:55;8.60;;;4.70;;
55170;SDS011;41060;47.510;8.680;2023-05-23T05:35:23;8.57;;;4.60;;
55170;SDS011;41060;47.510;8.680;2023-05-23T05:37:52;7.40;;;4.30;;
55170;SDS011;41060;47.510;8.680;2023-05-23T05:40:19;9.20;;;4.47;;
55170;SDS011;41060;47.510;8.680;2023-05-23T05:42:46;10.48;;;4.60;;
55170;SDS011;41060;47.510;8.680;2023-05-23T05:45:13;8.95;;;5.00;;
55170;SDS011;41060;47.510;8.680;2023-05-23T05:47:41;7.57;;;4.72;;
55170;SDS011;41060;47.510;8.680;2023-05-23T05:50:11;9.15;;;4.45;;
55170;SDS011;41060;47.510;8.680;2023-05-23T05:52:37;11.23;;;4.95;;
55170;SDS011;41060;47.510;8.680;2023-05-23T05:55:04;8.73;;;5.15;;
55170;SDS011;41060;47.510;8.680;2023-05-23T05:57:35;10.57;;;5.07;;
55170;SDS011;41060;47.510;8.680;2023-05-23T06:00:03;9.52;;;4.88;;
55170;SDS011;41060;47.510;8.680;2023-05-23T06:02:36;10.43;;;4.93;;
55170;SDS011;41060;47.510;8.680;2023-05-23T06:05:05;9.25;;;5.45;;
55170;SDS011;41060;47.510;8.680;2023-05-23T06:07:33;10.68;;;5.40;;
55170;SDS011;41060;47.510;8.680;2023-05-23T06:10:00;10.18;;;4.93;;
55170;SDS011;41060;47.510;8.680;2023-05-23T06:12:29;11.75;;;5.72;;
55170;SDS011;41060;47.510;8.680;2023-05-23T06:14:56;10.02;;;5.10;;
55170;SDS011;41060;47.510;8.680;2023-05-23T06:17:23;9.48;;;5.80;;
55170;SDS011;41060;47.510;8.680;2023-05-23T06:19:49;12.98;;;6.50;;
55170;SDS011;41060;47.510;8.680;2023-05-23T06:22:17;15.25;;;8.00;;
55170;SDS011;41060;47.510;8.680;2023-05-23T06:24:45;19.45;;;8.77;;
55170;SDS011;41060;47.510;8.680;2023-05-23T06:27:11;15.48;;;7.50;;
55170;SDS011;41060;47.510;8.680;2023-05-23T06:29:38;14.52;;;6.97;;
55170;SDS011;41060;47.510;8.680;2023-05-23T06:32:05;15.27;;;6.50;;
55170;SDS011;41060;47.510;8.680;2023-05-23T06:34:32;13.25;;;5.57;;
55170;SDS011;41060;47.510;8.680;2023-05-23T06:36:58;14.82;;;6.85;;
55170;SDS011;41060;47.510;8.680;2023-05-23T06:39:26;12.68;;;6.32;;
55170;SDS011;41060;47.510;8.680;2023-05-23T06:41:53;9.95;;;5.93;;
55170;SDS011;41060;47.510;8.680;2023-05-23T06:44:19;10.23;;;5.43;;
55170;SDS011;41060;47.510;8.680;2023-05-23T06:46:47;18.00;;;8.73;;
55170;SDS011;41060;47.510;8.680;2023-05-23T06:49:13;18.45;;;10.05;;
55170;SDS011;41060;47.510;8.680;2023-05-23T06:51:40;20.33;;;10.95;;
55170;SDS011;41060;47.510;8.680;2023-05-23T06:54:07;23.73;;;9.57;;
55170;SDS011;41060;47.510;8.680;2023-05-23T06:56:35;15.63;;;7.53;;
55170;SDS011;41060;47.510;8.680;2023-05-23T06:59:01;16.00;;;7.75;;
55170;SDS011;41060;47.510;8.680;2023-05-23T07:01:28;12.55;;;7.05;;
55170;SDS011;41060;47.510;8.680;2023-05-23T07:03:55;12.45;;;7.70;;
55170;SDS011;41060;47.510;8.680;2023-05-23T07:06:21;14.10;;;7.15;;
55170;SDS011;41060;47.510;8.680;2023-05-23T07:08:48;9.90;;;6.38;;
55170;SDS011;41060;47.510;8.680;2023-05-23T07:11:15;11.10;;;6.80;;
55170;SDS011;41060;47.510;8.680;2023-05-23T07:13:43;13.25;;;6.22;;
55170;SDS011;41060;47.510;8.680;2023-05-23T07:16:10;11.93;;;6.30;;
55170;SDS011;41060;47.510;8.680;2023-05-23T07:18:39;13.68;;;7.28;;
55170;SDS011;41060;47.510;8.680;2023-05-23T07:21:05;12.70;;;6.53;;
55170;SDS011;41060;47.510;8.680;2023-05-23T07:23:33;13.02;;;6.82;;
55170;SDS011;41060;47.510;8.680;2023-05-23T07:25:59;11.18;;;6.60;;
55170;SDS011;41060;47.510;8.680;2023-05-23T07:28:26;12.40;;;6.38;;
55170;SDS011;41060;47.510;8.680;2023-05-23T07:30:58;10.10;;;6.32;;
55170;SDS011;41060;47.510;8.680;2023-05-23T07:33:24;12.10;;;6.20;;
55170;SDS011;41060;47.510;8.680;2023-05-23T07:35:54;11.32;;;6.70;;
55170;SDS011;41060;47.510;8.680;2023-05-23T07:38:21;11.07;;;6.13;;
55170;SDS011;41060;47.510;8.680;2023-05-23T07:40:47;11.18;;;6.13;;
55170;SDS011;41060;47.510;8.680;2023-05-23T07:43:14;10.80;;;5.78;;
55170;SDS011;41060;47.510;8.680;2023-05-23T07:45:41;12.38;;;6.20;;
55170;SDS011;41060;47.510;8.680;2023-05-23T07:48:09;13.45;;;7.28;;
55170;SDS011;41060;47.510;8.680;2023-05-23T07:50:36;14.60;;;7.57;;
55170;SDS011;41060;47.510;8.680;2023-05-23T07:53:05;9.25;;;5.55;;
55170;SDS011;41060;47.510;8.680;2023-05-23T07:55:31;12.27;;;6.95;;
55170;SDS011;41060;47.510;8.680;2023-05-23T07:57:58;11.27;;;6.28;;
55170;SDS011;41060;47.510;8.680;2023-05-23T08:00:26;12.65;;;7.30;;
55170;SDS011;41060;47.510;8.680;2023-05-23T08:02:52;13.00;;;6.72;;
55170;SDS011;41060;47.510;8.680;2023-05-23T08:05:20;12.35;;;7.03;;
55170;SDS011;41060;47.510;8.680;2023-05-23T08:07:48;14.27;;;6.53;;
55170;SDS011;41060;47.510;8.680;2023-05-23T08:10:17;12.18;;;7.20;;
55170;SDS011;41060;47.510;8.680;2023-05-23T08:12:43;13.27;;;6.35;;
55170;SDS011;41060;47.510;8.680;2023-05-23T08:15:10;11.98;;;5.75;;
55170;SDS011;41060;47.510;8.680;2023-05-23T08:17:37;12.57;;;6.90;;
55170;SDS011;41060;47.510;8.680;2023-05-23T08:20:04;13.43;;;7.70;;
55170;SDS011;41060;47.510;8.680;2023-05-23T08:22:35;14.98;;;7.63;;
55170;SDS011;41060;47.510;8.680;2023-05-23T08:25:02;14.60;;;6.53;;
55170;SDS011;41060;47.510;8.680;2023-05-23T08:27:29;9.50;;;5.75;;
55170;SDS011;41060;47.510;8.680;2023-05-23T08:29:56;12.18;;;6.55;;
55170;SDS011;41060;47.510;8.680;2023-05-23T08:32:23;14.27;;;7.15;;
55170;SDS011;41060;47.510;8.680;2023-05-23T08:34:50;16.70;;;8.40;;
55170;SDS011;41060;47.510;8.680;2023-05-23T08:37:17;19.75;;;7.53;;
55170;SDS011;41060;47.510;8.680;2023-05-23T08:39:45;14.20;;;7.80;;
55170;SDS011;41060;47.510;8.680;2023-05-23T08:42:12;14.02;;;6.85;;
55170;SDS011;41060;47.510;8.680;2023-05-23T08:44:40;14.55;;;7.15;;
55170;SDS011;41060;47.510;8.680;2023-05-23T08:47:07;16.50;;;7.45;;
55170;SDS011;41060;47.510;8.680;2023-05-23T08:49:35;14.25;;;7.05;;
55170;SDS011;41060;47.510;8.680;2023-05-23T08:52:04;12.50;;;6.95;;
55170;SDS011;41060;47.510;8.680;2023-05-23T08:54:33;16.02;;;7.50;;
55170;SDS011;41060;47.510;8.680;2023-05-23T08:57:02;13.60;;;7.90;;
55170;SDS011;41060;47.510;8.680;2023-05-23T08:59:29;14.93;;;7.88;;
55170;SDS011;41060;47.510;8.680;2023-05-23T09:01:57;14.95;;;7.10;;
55170;SDS011;41060;47.510;8.680;2023-05-23T09:04:25;10.95;;;6.68;;
55170;SDS011;41060;47.510;8.680;2023-05-23T09:06:54;14.05;;;7.72;;
55170;SDS011;41060;47.510;8.680;2023-05-23T09:09:22;15.00;;;7.00;;
55170;SDS011;41060;47.510;8.680;2023-05-23T09:11:49;15.80;;;7.05;;
55170;SDS011;41060;47.510;8.680;2023-05-23T09:14:18;11.70;;;6.50;;
55170;SDS011;41060;47.510;8.680;2023-05-23T09:16:47;14.55;;;8.02;;
55170;SDS011;41060;47.510;8.680;2023-05-23T09:19:14;15.57;;;8.07;;
55170;SDS011;41060;47.510;8.680;2023-05-23T09:21:44;13.57;;;7.68;;
55170;SDS011;41060;47.510;8.680;2023-05-23T09:24:10;13.68;;;7.00;;
55170;SDS011;41060;47.510;8.680;2023-05-23T09:26:39;16.65;;;7.70;;
55170;SDS011;41060;47.510;8.680;2023-05-23T09:29:06;15.43;;;7.32;;
55170;SDS011;41060;47.510;8.680;2023-05-23T09:31:34;15.45;;;7.80;;
55170;SDS011;41060;47.510;8.680;2023-05-23T09:34:03;15.10;;;7.22;;
55170;SDS011;41060;47.510;8.680;2023-05-23T09:36:31;13.43;;;7.13;;
55170;SDS011;41060;47.510;8.680;2023-05-23T09:39:00;14.02;;;6.63;;
55170;SDS011;41060;47.510;8.680;2023-05-23T09:41:29;16.10;;;8.10;;
55170;SDS011;41060;47.510;8.680;2023-05-23T09:43:56;14.70;;;7.63;;
55170;SDS011;41060;47.510;8.680;2023-05-23T09:46:26;14.88;;;8.13;;
55170;SDS011;41060;47.510;8.680;2023-05-23T09:48:55;14.90;;;8.10;;
55170;SDS011;41060;47.510;8.680;2023-05-23T09:51:22;14.90;;;8.18;;
55170;SDS011;41060;47.510;8.680;2023-05-23T09:53:54;12.80;;;7.05;;
55170;SDS011;41060;47.510;8.680;2023-05-23T09:56:21;12.90;;;7.28;;
55170;SDS011;41060;47.510;8.680;2023-05-23T09:58:50;15.70;;;8.10;;
55170;SDS011;41060;47.510;8.680;2023-05-23T10:01:18;12.90;;;7.35;;
55170;SDS011;41060;47.510;8.680;2023-05-23T10:03:47;14.43;;;7.57;;
55170;SDS011;41060;47.510;8.680;2023-05-23T10:06:19;14.43;;;7.20;;
55170;SDS011;41060;47.510;8.680;2023-05-23T10:08:51;13.52;;;7.35;;
55170;SDS011;41060;47.510;8.680;2023-05-23T10:14:32;14.02;;;7.47;;
55170;SDS011;41060;47.510;8.680;2023-05-23T10:17:07;11.38;;;6.70;;
55170;SDS011;41060;47.510;8.680;2023-05-23T10:19:40;13.35;;;7.30;;
55170;SDS011;41060;47.510;8.680;2023-05-23T10:22:11;15.52;;;8.50;;
55170;SDS011;41060;47.510;8.680;2023-05-23T10:24:39;12.23;;;6.65;;
55170;SDS011;41060;47.510;8.680;2023-05-23T10:27:07;12.65;;;7.60;;
55170;SDS011;41060;47.510;8.680;2023-05-23T10:29:34;14.68;;;7.88;;
55170;SDS011;41060;47.510;8.680;2023-05-23T10:32:01;14.73;;;7.90;;
55170;SDS011;41060;47.510;8.680;2023-05-23T10:34:30;16.65;;;8.60;;
55170;SDS011;41060;47.510;8.680;2023-05-23T10:37:01;16.08;;;7.72;;
55170;SDS011;41060;47.510;8.680;2023-05-23T10:39:35;15.15;;;6.93;;
55170;SDS011;41060;47.510;8.680;2023-05-23T10:42:10;13.68;;;7.70;;
55170;SDS011;41060;47.510;8.680;2023-05-23T10:44:40;13.55;;;7.90;;
55170;SDS011;41060;47.510;8.680;2023-05-23T10:47:11;16.17;;;7.55;;
55170;SDS011;41060;47.510;8.680;2023-05-23T10:49:38;12.73;;;7.10;;
55170;SDS011;41060;47.510;8.680;2023-05-23T10:52:07;12.18;;;6.78;;
55170;SDS011;41060;47.510;8.680;2023-05-23T10:54:36;13.85;;;8.50;;
55170;SDS011;41060;47.510;8.680;2023-05-23T10:57:08;14.05;;;7.60;;
55170;SDS011;41060;47.510;8.680;2023-05-23T10:59:37;17.38;;;7.68;;
55170;SDS011;41060;47.510;8.680;2023-05-23T11:02:06;11.32;;;6.90;;
55170;SDS011;41060;47.510;8.680;2023-05-23T11:04:39;15.98;;;7.60;;
55170;SDS011;41060;47.510;8.680;2023-05-23T11:07:27;16.50;;;7.70;;
55170;SDS011;41060;47.510;8.680;2023-05-23T11:10:08;13.30;;;6.65;;
55170;SDS011;41060;47.510;8.680;2023-05-23T11:12:36;13.52;;;7.25;;
55170;SDS011;41060;47.510;8.680;2023-05-23T11:15:18;12.98;;;7.88;;
55170;SDS011;41060;47.510;8.680;2023-05-23T11:17:49;11.52;;;7.15;;
55170;SDS011;41060;47.510;8.680;2023-05-23T11:20:17;16.85;;;6.55;;
55170;SDS011;41060;47.510;8.680;2023-05-23T11:22:59;14.07;;;7.55;;
55170;SDS011;41060;47.510;8.680;2023-05-23T11:25:40;17.35;;;7.70;;
55170;SDS011;41060;47.510;8.680;2023-05-23T11:28:08;13.85;;;7.20;;
55170;SDS011;41060;47.510;8.680;2023-05-23T11:30:35;15.05;;;7.30;;
55170;SDS011;41060;47.510;8.680;2023-05-23T11:33:06;12.85;;;7.20;;
55170;SDS011;41060;47.510;8.680;2023-05-23T11:35:35;13.30;;;7.37;;
55170;SDS011;41060;47.510;8.680;2023-05-23T11:38:01;16.98;;;7.20;;
55170;SDS011;41060;47.510;8.680;2023-05-23T11:40:30;15.82;;;7.97;;
55170;SDS011;41060;47.510;8.680;2023-05-23T11:43:00;17.25;;;7.68;;
55170;SDS011;41060;47.510;8.680;2023-05-23T11:45:28;12.73;;;8.00;;
55170;SDS011;41060;47.510;8.680;2023-05-23T11:47:55;14.13;;;6.82;;
55170;SDS011;41060;47.510;8.680;2023-05-23T11:50:22;14.00;;;7.03;;
55170;SDS011;41060;47.510;8.680;2023-05-23T11:52:49;12.23;;;6.72;;
55170;SDS011;41060;47.510;8.680;2023-05-23T11:55:16;14.45;;;6.93;;
55170;SDS011;41060;47.510;8.680;2023-05-23T11:57:47;14.65;;;6.60;;
55170;SDS011;41060;47.510;8.680;2023-05-23T12:00:16;13.23;;;7.50;;
55170;SDS011;41060;47.510;8.680;2023-05-23T12:02:44;12.38;;;7.47;;
55170;SDS011;41060;47.510;8.680;2023-05-23T12:05:14;12.13;;;7.07;;
55170;SDS011;41060;47.510;8.680;2023-05-23T12:07:41;11.68;;;6.60;;
55170;SDS011;41060;47.510;8.680;2023-05-23T12:10:08;10.20;;;5.75;;
55170;SDS011;41060;47.510;8.680;2023-05-23T12:12:36;7.93;;;4.68;;
55170;SDS011;41060;47.510;8.680;2023-05-23T12:15:25;6.13;;;3.95;;
55170;SDS011;41060;47.510;8.680;2023-05-23T12:17:53;9.70;;;3.53;;
55170;SDS011;41060;47.510;8.680;2023-05-23T12:20:20;6.50;;;3.25;;
55170;SDS011;41060;47.510;8.680;2023-05-23T12:22:47;4.47;;;2.80;;
55170;SDS011;41060;47.510;8.680;2023-05-23T12:25:14;5.13;;;2.78;;
55170;SDS011;41060;47.510;8.680;2023-05-23T12:27:40;4.20;;;2.65;;
55170;SDS011;41060;47.510;8.680;2023-05-23T12:30:08;4.97;;;2.85;;
55170;SDS011;41060;47.510;8.680;2023-05-23T12:32:39;3.88;;;2.17;;
55170;SDS011;41060;47.510;8.680;2023-05-23T12:35:07;4.10;;;2.28;;
55170;SDS011;41060;47.510;8.680;2023-05-23T12:37:37;5.05;;;2.45;;
55170;SDS011;41060;47.510;8.680;2023-05-23T12:40:11;6.13;;;2.80;;
55170;SDS011;41060;47.510;8.680;2023-05-23T12:42:51;3.80;;;2.03;;
55170;SDS011;41060;47.510;8.680;2023-05-23T12:47:50;4.88;;;2.97;;
55170;SDS011;41060;47.510;8.680;2023-05-23T12:50:20;5.32;;;2.83;;
55170;SDS011;41060;47.510;8.680;2023-05-23T12:52:47;4.30;;;2.83;;
55170;SDS011;41060;47.510;8.680;2023-05-23T12:55:13;4.20;;;2.45;;
55170;SDS011;41060;47.510;8.680;2023-05-23T12:57:40;5.72;;;2.83;;
55170;SDS011;41060;47.510;8.680;2023-05-23T13:00:08;4.28;;;2.40;;
55170;SDS011;41060;47.510;8.680;2023-05-23T13:02:35;4.82;;;2.13;;
55170;SDS011;41060;47.510;8.680;2023-05-23T13:05:04;4.43;;;2.60;;
55170;SDS011;41060;47.510;8.680;2023-05-23T13:07:32;3.72;;;2.00;;
55170;SDS011;41060;47.510;8.680;2023-05-23T13:09:59;6.57;;;3.13;;
55170;SDS011;41060;47.510;8.680;2023-05-23T13:12:26;5.00;;;3.08;;
55170;SDS011;41060;47.510;8.680;2023-05-23T13:14:54;5.93;;;2.63;;
55170;SDS011;41060;47.510;8.680;2023-05-23T13:17:22;5.63;;;2.42;;
55170;SDS011;41060;47.510;8.680;2023-05-23T13:19:48;4.85;;;2.72;;
55170;SDS011;41060;47.510;8.680;2023-05-23T13:22:17;4.32;;;2.65;;
55170;SDS011;41060;47.510;8.680;2023-05-23T13:24:43;6.05;;;3.05;;
55170;SDS011;41060;47.510;8.680;2023-05-23T13:27:12;4.78;;;2.83;;
55170;SDS011;41060;47.510;8.680;2023-05-23T13:29:39;5.18;;;2.83;;
55170;SDS011;41060;47.510;8.680;2023-05-23T13:32:06;5.97;;;2.85;;
55170;SDS011;41060;47.510;8.680;2023-05-23T13:34:33;5.78;;;3.08;;
55170;SDS011;41060;47.510;8.680;2023-05-23T13:37:02;4.30;;;2.20;;
55170;SDS011;41060;47.510;8.680;2023-05-23T13:39:30;8.63;;;2.97;;
55170;SDS011;41060;47.510;8.680;2023-05-23T13:41:57;5.43;;;2.65;;
55170;SDS011;41060;47.510;8.680;2023-05-23T13:44:27;3.83;;;2.47;;
55170;SDS011;41060;47.510;8.680;2023-05-23T13:46:53;3.50;;;2.35;;
55170;SDS011;41060;47.510;8.680;2023-05-23T13:49:23;4.28;;;2.50;;
55170;SDS011;41060;47.510;8.680;2023-05-23T13:51:53;6.80;;;2.65;;
55170;SDS011;41060;47.510;8.680;2023-05-23T13:54:20;5.18;;;2.50;;
55170;SDS011;41060;47.510;8.680;2023-05-23T13:56:48;5.43;;;3.55;;
55170;SDS011;41060;47.510;8.680;2023-05-23T13:59:15;7.68;;;3.95;;
55170;SDS011;41060;47.510;8.680;2023-05-23T14:01:45;5.55;;;3.17;;
55170;SDS011;41060;47.510;8.680;2023-05-23T14:04:11;7.18;;;3.70;;
55170;SDS011;41060;47.510;8.680;2023-05-23T14:06:38;6.10;;;3.50;;
55170;SDS011;41060;47.510;8.680;2023-05-23T14:09:05;7.35;;;4.65;;
55170;SDS011;41060;47.510;8.680;2023-05-23T14:11:31;8.05;;;4.18;;
55170;SDS011;41060;47.510;8.680;2023-05-23T14:14:00;6.95;;;4.07;;
55170;SDS011;41060;47.510;8.680;2023-05-23T14:16:27;4.68;;;2.88;;
55170;SDS011;41060;47.510;8.680;2023-05-23T14:18:53;4.82;;;3.00;;
55170;SDS011;41060;47.510;8.680;2023-05-23T14:21:20;6.78;;;4.50;;
55170;SDS011;41060;47.510;8.680;2023-05-23T14:23:47;10.90;;;5.82;;
55170;SDS011;41060;47.510;8.680;2023-05-23T14:26:16;10.95;;;5.35;;
55170;SDS011;41060;47.510;8.680;2023-05-23T14:28:43;8.45;;;4.60;;
55170;SDS011;41060;47.510;8.680;2023-05-23T14:31:11;10.63;;;5.05;;
55170;SDS011;41060;47.510;8.680;2023-05-23T14:33:37;10.10;;;5.03;;
55170;SDS011;41060;47.510;8.680;2023-05-23T14:36:05;14.32;;;5.97;;
55170;SDS011;41060;47.510;8.680;2023-05-23T14:38:32;9.38;;;5.53;;
55170;SDS011;41060;47.510;8.680;2023-05-23T14:40:58;8.80;;;4.90;;
55170;SDS011;41060;47.510;8.680;2023-05-23T14:43:26;12.65;;;5.72;;
55170;SDS011;41060;47.510;8.680;2023-05-23T14:45:52;12.88;;;5.78;;
55170;SDS011;41060;47.510;8.680;2023-05-23T14:48:20;10.10;;;5.53;;
55170;SDS011;41060;47.510;8.680;2023-05-23T14:50:50;10.10;;;5.35;;
55170;SDS011;41060;47.510;8.680;2023-05-23T14:53:17;12.13;;;6.80;;
55170;SDS011;41060;47.510;8.680;2023-05-23T14:55:45;12.00;;;6.63;;